Time;durP1;ratioP1;P1;durP2;ratioP2;P2;SDS_P1;SDS_P2;PMS_P1;PMS_P2;Temp;Humidity;BMP_temperature;BMP_pressure;BME280_temperature;BME280_humidity;BME280_pressure;Samples;Min_cycle;Max_cycle;Signal;HPM_P1;HPM_P2
2024/03/07 00:01:47;;;;;;;23.20;13.30;;;8.80;99.90;;;;;;4962314;28;20226;-74
2024/03/07 00:04:13;;;;;;;26.87;14.47;;;8.80;99.90;;;;;;4961193;28;20214;-72
2024/03/07 00:06:41;;;;;;;23.73;13.60;;;8.70;99.90;;;;;;4960217;28;20566;-73
2024/03/07 00:09:09;;;;;;;26.80;16.20;;;8.60;99.90;;;;;;4959588;28;20549;-73
2024/03/07 00:11:35;;;;;;;18.67;11.67;;;8.60;99.90;;;;;;4961044;28;20473;-72
2024/03/07 00:14:00;;;;;;;24.20;14.07;;;8.70;99.90;;;;;;4947436;28;20454;-74
2024/03/07 00:16:26;;;;;;;30.80;15.00;;;8.70;99.90;;;;;;4944241;28;20701;-73
2024/03/07 00:18:52;;;;;;;25.80;13.60;;;8.60;99.90;;;;;;4962185;28;20242;-73
2024/03/07 00:21:17;;;;;;;28.40;15.20;;;8.60;99.90;;;;;;4955513;28;20597;-73
2024/03/07 00:23:43;;;;;;;22.97;13.17;;;8.60;99.90;;;;;;4961585;28;20221;-73
2024/03/07 00:26:09;;;;;;;26.60;14.60;;;8.60;99.90;;;;;;4956734;28;20325;-73
2024/03/07 00:28:39;;;;;;;24.67;14.20;;;8.50;99.90;;;;;;4962749;28;20229;-73
2024/03/07 00:31:06;;;;;;;21.83;13.77;;;8.50;99.90;;;;;;4960173;28;20218;-73
2024/03/07 00:33:33;;;;;;;26.97;14.77;;;8.60;99.90;;;;;;4961393;28;21016;-73
2024/03/07 00:35:59;;;;;;;27.23;15.70;;;8.70;99.90;;;;;;4961863;28;20981;-74
2024/03/07 00:38:25;;;;;;;25.10;13.63;;;8.60;99.90;;;;;;4941579;28;20513;-74
2024/03/07 00:40:51;;;;;;;34.17;15.63;;;8.60;99.90;;;;;;4962191;28;20493;-74
2024/03/07 00:43:17;;;;;;;27.37;15.60;;;8.60;99.90;;;;;;4957022;28;20489;-74
2024/03/07 00:45:42;;;;;;;28.40;14.53;;;8.60;99.90;;;;;;4957169;28;20274;-72
2024/03/07 00:48:09;;;;;;;25.47;14.03;;;8.50;99.90;;;;;;4961247;28;20280;-73
2024/03/07 00:50:34;;;;;;;34.30;15.43;;;8.60;99.90;;;;;;4957096;28;20214;-74
2024/03/07 00:53:00;;;;;;;25.50;14.50;;;8.50;99.90;;;;;;4960994;28;20465;-72
2024/03/07 00:55:26;;;;;;;27.57;14.60;;;8.50;99.90;;;;;;4974268;28;20317;-73
2024/03/07 00:57:51;;;;;;;24.97;13.97;;;8.50;99.90;;;;;;4969294;28;20226;-74
2024/03/07 01:00:21;;;;;;;21.60;13.47;;;8.50;99.90;;;;;;4951007;28;20595;-74
2024/03/07 01:02:47;;;;;;;23.57;13.90;;;8.50;99.90;;;;;;4965296;28;20266;-72
2024/03/07 01:05:17;;;;;;;24.37;13.80;;;8.40;99.90;;;;;;4967466;28;20560;-72
2024/03/07 01:07:44;;;;;;;26.00;14.53;;;8.40;99.90;;;;;;4964786;28;20509;-73
2024/03/07 01:10:10;;;;;;;25.10;13.80;;;8.40;99.90;;;;;;4964270;28;20468;-73
2024/03/07 01:12:35;;;;;;;26.67;14.20;;;8.40;99.90;;;;;;4966122;28;20462;-73
2024/03/07 01:15:04;;;;;;;23.70;15.40;;;8.40;99.90;;;;;;4964903;28;20326;-72
2024/03/07 01:17:29;;;;;;;25.43;14.07;;;8.40;99.90;;;;;;4964976;28;20238;-72
2024/03/07 01:19:55;;;;;;;26.70;13.60;;;8.40;99.90;;;;;;4978051;28;20489;-73
2024/03/07 01:22:22;;;;;;;22.07;13.13;;;8.40;99.90;;;;;;4965867;28;20233;-73
2024/03/07 01:24:48;;;;;;;24.73;14.07;;;8.40;99.90;;;;;;4967911;28;20215;-74
2024/03/07 01:27:13;;;;;;;23.30;14.03;;;8.40;99.90;;;;;;4980787;28;20481;-73
2024/03/07 01:29:44;;;;;;;29.97;15.57;;;8.40;99.90;;;;;;4983847;28;20244;-74
2024/03/07 01:32:10;;;;;;;24.87;14.73;;;8.30;99.90;;;;;;4967011;28;20218;-73
2024/03/07 01:34:36;;;;;;;32.60;14.60;;;8.30;99.90;;;;;;4969508;28;20533;-72
2024/03/07 01:37:02;;;;;;;26.23;14.40;;;8.30;99.90;;;;;;4968021;28;20621;-72
2024/03/07 01:39:28;;;;;;;28.20;15.30;;;8.30;99.90;;;;;;4969087;28;20275;-72
2024/03/07 01:41:54;;;;;;;26.50;14.20;;;8.30;99.90;;;;;;4965547;28;20237;-73
2024/03/07 01:44:19;;;;;;;31.17;16.13;;;8.30;99.90;;;;;;4962475;28;20288;-72
2024/03/07 01:46:45;;;;;;;23.90;13.53;;;8.30;99.90;;;;;;4966315;28;20357;-72
2024/03/07 01:49:11;;;;;;;31.93;15.90;;;8.30;99.90;;;;;;4967081;28;20218;-72
2024/03/07 01:51:38;;;;;;;26.67;14.10;;;8.30;99.90;;;;;;4963860;28;20226;-73
2024/03/07 01:54:05;;;;;;;28.60;16.80;;;8.20;99.90;;;;;;4978753;28;20222;-72
2024/03/07 01:56:31;;;;;;;20.50;12.50;;;8.20;99.90;;;;;;4949840;28;20469;-72
2024/03/07 01:58:59;;;;;;;23.50;14.60;;;8.10;99.90;;;;;;4966420;28;20461;-72
2024/03/07 02:01:24;;;;;;;28.47;14.97;;;8.10;99.90;;;;;;4978645;28;20575;-73
2024/03/07 02:03:50;;;;;;;28.33;15.10;;;8.10;99.90;;;;;;4948979;28;20449;-73
2024/03/07 02:06:15;;;;;;;23.87;14.60;;;8.10;99.90;;;;;;4948407;28;20223;-73
2024/03/07 02:08:41;;;;;;;24.90;14.50;;;8.10;99.90;;;;;;4967760;28;20366;-71
2024/03/07 02:11:09;;;;;;;24.30;14.47;;;8.10;99.90;;;;;;4966288;28;20613;-71
2024/03/07 02:13:35;;;;;;;27.70;13.30;;;8.10;99.90;;;;;;4965748;28;20220;-71
2024/03/07 02:16:01;;;;;;;26.40;15.67;;;8.10;99.90;;;;;;4963647;28;20473;-73
2024/03/07 02:18:26;;;;;;;27.70;14.43;;;8.10;99.90;;;;;;4965497;28;20229;-73
2024/03/07 02:20:52;;;;;;;27.17;15.63;;;8.10;99.90;;;;;;4964576;28;20261;-73
2024/03/07 02:23:18;;;;;;;35.40;16.07;;;8.10;99.90;;;;;;4948072;28;20322;-72
2024/03/07 02:25:44;;;;;;;32.30;15.00;;;8.10;99.90;;;;;;4968003;28;20229;-72
2024/03/07 02:28:10;;;;;;;23.20;15.20;;;8.10;99.90;;;;;;4968137;28;20649;-72
2024/03/07 02:30:36;;;;;;;24.50;13.57;;;8.10;99.90;;;;;;4966971;28;20450;-73
2024/03/07 02:33:09;;;;;;;24.63;14.00;;;8.10;99.90;;;;;;4966376;28;20229;-72
2024/03/07 02:35:35;;;;;;;28.33;15.80;;;8.10;99.90;;;;;;4970042;28;20510;-73
2024/03/07 02:38:05;;;;;;;26.70;15.37;;;8.00;99.90;;;;;;4968532;28;20461;-73
2024/03/07 02:40:31;;;;;;;25.53;14.90;;;8.00;99.90;;;;;;4966357;28;20454;-73
2024/03/07 02:42:57;;;;;;;28.60;15.83;;;8.00;99.90;;;;;;4969989;28;20461;-73
2024/03/07 02:45:23;;;;;;;30.73;15.73;;;8.00;99.90;;;;;;4971307;28;20450;-72
2024/03/07 02:47:49;;;;;;;30.80;15.27;;;8.00;99.90;;;;;;4968206;28;20898;-73
2024/03/07 02:50:15;;;;;;;23.83;14.30;;;8.00;99.90;;;;;;4980508;28;20500;-72
2024/03/07 02:52:41;;;;;;;25.00;14.83;;;8.00;99.90;;;;;;4968865;28;20832;-71
2024/03/07 02:55:10;;;;;;;28.53;15.07;;;7.90;99.90;;;;;;4966929;28;20215;-73
2024/03/07 02:57:36;;;;;;;25.80;14.80;;;7.90;99.90;;;;;;4980532;28;20276;-73
2024/03/07 03:00:03;;;;;;;23.60;14.30;;;7.80;99.90;;;;;;4967986;28;20553;-73
2024/03/07 03:02:28;;;;;;;27.07;15.07;;;7.80;99.90;;;;;;4967973;28;20483;-71
2024/03/07 03:04:54;;;;;;;28.87;15.87;;;7.70;99.90;;;;;;4984184;28;20566;-73
2024/03/07 03:07:20;;;;;;;26.47;14.83;;;7.70;99.90;;;;;;4967322;28;20265;-72
2024/03/07 03:09:46;;;;;;;30.63;14.73;;;7.60;99.90;;;;;;4969577;28;20242;-72
2024/03/07 03:12:12;;;;;;;29.73;17.00;;;7.60;99.90;;;;;;4968208;28;20475;-73
2024/03/07 03:14:39;;;;;;;26.00;15.90;;;7.70;99.90;;;;;;4960518;28;20486;-73
2024/03/07 03:17:08;;;;;;;30.10;16.03;;;7.60;99.90;;;;;;4951830;28;20498;-74
2024/03/07 03:19:35;;;;;;;29.97;17.00;;;7.60;99.90;;;;;;4967308;28;20462;-72
2024/03/07 03:22:00;;;;;;;30.33;16.13;;;7.60;99.90;;;;;;4951815;28;20474;-73
2024/03/07 03:24:27;;;;;;;27.50;14.90;;;7.50;99.90;;;;;;4966479;28;20461;-72
2024/03/07 03:26:52;;;;;;;29.20;15.40;;;7.60;99.90;;;;;;4966433;28;20250;-73
2024/03/07 03:29:18;;;;;;;28.47;15.97;;;7.50;99.90;;;;;;4967572;28;20455;-73
2024/03/07 03:31:44;;;;;;;24.90;15.43;;;7.50;99.90;;;;;;4952584;28;20218;-73
2024/03/07 03:34:10;;;;;;;29.93;17.30;;;7.50;99.90;;;;;;4967806;28;20247;-73
2024/03/07 03:36:35;;;;;;;30.43;16.20;;;7.50;99.90;;;;;;4966258;28;20238;-73
2024/03/07 03:39:01;;;;;;;29.70;16.93;;;7.50;99.90;;;;;;4964045;28;20760;-75
2024/03/07 03:41:27;;;;;;;29.37;16.30;;;7.40;99.90;;;;;;4964718;28;20217;-73
2024/03/07 03:43:53;;;;;;;32.90;17.40;;;7.40;99.90;;;;;;4968042;28;20708;-73
2024/03/07 03:46:18;;;;;;;27.10;14.87;;;7.40;99.90;;;;;;4968594;28;20317;-70
2024/03/07 03:48:44;;;;;;;25.97;14.60;;;7.40;99.90;;;;;;4967115;28;20457;-73
2024/03/07 03:51:12;;;;;;;28.37;16.27;;;7.40;99.90;;;;;;4964431;28;20219;-73
2024/03/07 03:53:38;;;;;;;25.60;15.47;;;7.40;99.90;;;;;;4980299;28;20219;-73
2024/03/07 03:56:06;;;;;;;24.40;16.07;;;7.40;99.90;;;;;;4966444;28;20497;-72
2024/03/07 03:58:31;;;;;;;29.37;14.40;;;7.40;99.90;;;;;;4951868;28;20494;-74
2024/03/07 04:01:00;;;;;;;26.40;14.17;;;7.40;99.90;;;;;;4970622;28;20552;-73
2024/03/07 04:03:26;;;;;;;24.53;13.73;;;7.30;99.90;;;;;;4967583;28;20305;-74
2024/03/07 04:05:52;;;;;;;22.57;13.60;;;7.30;99.90;;;;;;4967087;28;20466;-74
2024/03/07 04:08:20;;;;;;;24.40;13.67;;;7.30;99.90;;;;;;4967298;28;20800;-73
2024/03/07 04:10:45;;;;;;;23.37;13.40;;;7.30;99.90;;;;;;4964959;28;20210;-73
2024/03/07 04:13:11;;;;;;;26.77;12.60;;;7.30;99.90;;;;;;4966338;28;20474;-73
2024/03/07 04:15:37;;;;;;;21.53;11.90;;;7.20;99.90;;;;;;4968933;28;20380;-72
2024/03/07 04:18:02;;;;;;;26.47;13.37;;;7.20;99.90;;;;;;4952213;28;20297;-73
2024/03/07 04:20:28;;;;;;;22.53;12.93;;;7.20;99.90;;;;;;4978632;28;20645;-73
2024/03/07 04:22:55;;;;;;;26.30;13.00;;;7.10;99.90;;;;;;4970228;28;20321;-73
2024/03/07 04:25:21;;;;;;;28.30;14.70;;;7.10;99.90;;;;;;4982675;28;20218;-71
2024/03/07 04:27:49;;;;;;;26.30;14.50;;;7.10;99.90;;;;;;4952226;28;20844;-72
2024/03/07 04:30:16;;;;;;;22.97;12.90;;;7.10;99.90;;;;;;4964007;28;20211;-72
2024/03/07 04:32:42;;;;;;;23.47;13.37;;;7.00;99.90;;;;;;4963820;28;20470;-72
2024/03/07 04:35:10;;;;;;;18.30;12.27;;;7.00;99.90;;;;;;4966775;28;20449;-73
2024/03/07 04:37:36;;;;;;;22.47;12.73;;;7.00;99.90;;;;;;4968468;28;20702;-73
2024/03/07 04:40:14;;;;;;;23.50;12.30;;;7.00;99.90;;;;;;4961711;28;20548;-73
2024/03/07 04:42:49;;;;;;;20.60;11.63;;;7.00;99.90;;;;;;4967034;28;20453;-72
2024/03/07 04:45:16;;;;;;;21.63;11.80;;;7.00;99.90;;;;;;4964857;28;20541;-72
2024/03/07 04:47:42;;;;;;;25.70;13.70;;;7.00;99.90;;;;;;4967497;28;20459;-72
2024/03/07 04:50:10;;;;;;;19.57;11.60;;;7.00;99.90;;;;;;4964609;28;20450;-72
2024/03/07 04:52:37;;;;;;;25.50;13.40;;;7.00;99.90;;;;;;4967619;28;21038;-72
2024/03/07 04:55:05;;;;;;;20.00;12.63;;;7.00;99.90;;;;;;4966894;28;20550;-73
2024/03/07 04:57:31;;;;;;;23.17;11.30;;;7.00;99.90;;;;;;4966348;28;21232;-72
2024/03/07 04:59:56;;;;;;;27.30;13.50;;;6.90;99.90;;;;;;4979576;28;20897;-72
2024/03/07 05:02:23;;;;;;;24.10;12.87;;;6.90;99.90;;;;;;4950886;28;20242;-73
2024/03/07 05:04:50;;;;;;;26.23;14.33;;;6.90;99.90;;;;;;4950553;28;20206;-72
2024/03/07 05:07:16;;;;;;;22.70;13.27;;;6.90;99.90;;;;;;4963932;28;20485;-73
2024/03/07 05:09:41;;;;;;;27.30;12.90;;;6.90;99.90;;;;;;4967607;28;20462;-72
2024/03/07 05:12:07;;;;;;;18.77;11.30;;;6.90;99.90;;;;;;4965237;28;20235;-73
2024/03/07 05:14:33;;;;;;;28.30;13.53;;;6.80;99.90;;;;;;4966995;28;20214;-74
2024/03/07 05:17:04;;;;;;;21.70;13.63;;;6.80;99.90;;;;;;4966227;28;20976;-72
2024/03/07 05:19:34;;;;;;;23.20;13.60;;;6.80;99.90;;;;;;4963180;28;20222;-72
2024/03/07 05:22:00;;;;;;;24.70;13.37;;;6.80;99.90;;;;;;4962219;28;20513;-72
2024/03/07 05:24:28;;;;;;;24.57;12.07;;;6.70;99.90;;;;;;4962813;28;20460;-71
2024/03/07 05:26:54;;;;;;;26.70;14.67;;;6.70;99.90;;;;;;4965692;28;20470;-73
2024/03/07 05:29:20;;;;;;;20.17;12.47;;;6.70;99.90;;;;;;4949620;28;20449;-72
2024/03/07 05:31:48;;;;;;;23.60;14.17;;;6.70;99.90;;;;;;4967252;28;20222;-73
2024/03/07 05:34:15;;;;;;;24.37;13.30;;;6.70;99.90;;;;;;4957644;28;20233;-73
2024/03/07 05:36:46;;;;;;;18.73;12.20;;;6.70;99.90;;;;;;4965714;28;20458;-73
2024/03/07 05:39:17;;;;;;;20.83;12.40;;;6.60;99.90;;;;;;4962276;28;20455;-72
2024/03/07 05:41:45;;;;;;;20.60;12.00;;;6.60;99.90;;;;;;4966547;28;20470;-73
2024/03/07 05:44:11;;;;;;;24.70;12.20;;;6.60;99.90;;;;;;4967713;28;20466;-74
2024/03/07 05:46:41;;;;;;;22.67;11.50;;;6.60;99.90;;;;;;4967763;28;20517;-73
2024/03/07 05:49:08;;;;;;;19.00;11.30;;;6.60;99.90;;;;;;4966273;28;20459;-72
2024/03/07 05:51:34;;;;;;;17.40;10.77;;;6.60;99.90;;;;;;4964296;28;20471;-73
2024/03/07 05:54:00;;;;;;;20.77;11.20;;;6.60;99.90;;;;;;4962434;28;20549;-73
2024/03/07 05:56:25;;;;;;;20.80;11.63;;;6.50;99.90;;;;;;4960662;28;20542;-72
2024/03/07 05:58:51;;;;;;;22.50;11.43;;;6.50;99.90;;;;;;4967348;28;20222;-73
2024/03/07 06:01:18;;;;;;;21.10;10.07;;;6.50;99.90;;;;;;4965623;28;20222;-73
2024/03/07 06:03:45;;;;;;;20.90;12.57;;;6.50;99.90;;;;;;4968808;28;20242;-73
2024/03/07 06:06:11;;;;;;;18.27;12.27;;;6.50;99.90;;;;;;4971486;28;20474;-74
2024/03/07 06:08:38;;;;;;;19.70;11.80;;;6.40;99.90;;;;;;4970733;28;20462;-73
2024/03/07 06:11:04;;;;;;;20.40;11.13;;;6.30;99.90;;;;;;4970606;28;20536;-73
2024/03/07 06:13:30;;;;;;;18.50;10.63;;;6.30;99.90;;;;;;4969823;28;20800;-73
2024/03/07 06:15:55;;;;;;;21.53;10.97;;;6.30;99.90;;;;;;4955690;28;20223;-72
2024/03/07 06:18:21;;;;;;;21.70;11.87;;;6.30;99.90;;;;;;4968550;28;20487;-73
2024/03/07 06:20:48;;;;;;;20.93;13.37;;;6.30;99.90;;;;;;4954469;28;20270;-73
2024/03/07 06:23:16;;;;;;;15.07;10.83;;;6.30;99.90;;;;;;4968270;28;20309;-73
2024/03/07 06:25:50;;;;;;;20.73;10.90;;;6.30;99.90;;;;;;4969921;28;20486;-73
2024/03/07 06:28:17;;;;;;;20.00;11.97;;;6.30;99.90;;;;;;4964961;28;20469;-74
2024/03/07 06:30:45;;;;;;;19.70;11.70;;;6.20;99.90;;;;;;4967301;28;20450;-74
2024/03/07 06:33:12;;;;;;;23.00;12.43;;;6.20;99.90;;;;;;4966258;28;20461;-73
2024/03/07 06:35:38;;;;;;;19.90;12.60;;;6.20;99.90;;;;;;4968444;28;20473;-71
2024/03/07 06:38:08;;;;;;;21.17;12.03;;;6.10;99.90;;;;;;4967685;28;20505;-72
2024/03/07 06:40:34;;;;;;;23.13;12.97;;;6.20;99.90;;;;;;4965475;28;20494;-73
2024/03/07 06:43:00;;;;;;;20.07;11.90;;;6.10;99.90;;;;;;4965546;28;20549;-72
2024/03/07 06:45:26;;;;;;;22.20;12.43;;;6.10;99.90;;;;;;4980438;28;20541;-73
2024/03/07 06:47:54;;;;;;;25.00;13.27;;;6.10;99.90;;;;;;4980221;28;20219;-74
2024/03/07 06:50:21;;;;;;;23.53;11.93;;;6.10;99.90;;;;;;4961718;28;20231;-74
2024/03/07 06:52:47;;;;;;;19.07;10.53;;;6.10;99.90;;;;;;4964107;28;20465;-72
2024/03/07 06:55:17;;;;;;;22.93;12.30;;;6.20;99.90;;;;;;4961758;28;20465;-73
2024/03/07 06:57:43;;;;;;;22.70;13.10;;;6.10;99.90;;;;;;4961382;28;21031;-73
2024/03/07 07:00:11;;;;;;;21.77;12.47;;;6.10;99.90;;;;;;4959112;28;20468;-73
2024/03/07 07:02:44;;;;;;;24.07;12.07;;;6.10;99.90;;;;;;4961906;28;20557;-73
2024/03/07 07:05:15;;;;;;;27.13;12.20;;;6.10;99.90;;;;;;4955773;28;20450;-73
2024/03/07 07:07:45;;;;;;;19.40;11.17;;;6.10;99.90;;;;;;4964222;28;20466;-71
2024/03/07 07:10:23;;;;;;;22.60;12.50;;;6.10;99.90;;;;;;4970914;28;20455;-72
2024/03/07 07:12:49;;;;;;;19.40;11.27;;;6.10;99.90;;;;;;4974301;28;20575;-73
2024/03/07 07:15:17;;;;;;;22.53;10.93;;;6.10;99.90;;;;;;4972672;28;20455;-73
2024/03/07 07:17:46;;;;;;;22.43;10.70;;;6.10;99.90;;;;;;4963015;28;20462;-73
2024/03/07 07:20:15;;;;;;;24.40;12.80;;;6.10;99.90;;;;;;4957371;28;20466;-72
2024/03/07 07:22:42;;;;;;;21.90;13.20;;;6.00;99.90;;;;;;4960052;28;20547;-71
2024/03/07 07:25:14;;;;;;;21.80;12.27;;;6.00;99.90;;;;;;4962084;28;20472;-73
2024/03/07 07:27:48;;;;;;;16.73;9.57;;;6.00;99.90;;;;;;4962871;28;20486;-73
2024/03/07 07:30:17;;;;;;;20.93;12.07;;;6.00;99.90;;;;;;4958887;28;20502;-71
2024/03/07 07:32:44;;;;;;;20.07;11.80;;;6.10;99.90;;;;;;4962720;28;20481;-73
2024/03/07 07:35:11;;;;;;;22.43;12.57;;;6.10;99.90;;;;;;4960011;28;20469;-73
2024/03/07 07:37:41;;;;;;;23.13;11.93;;;6.10;99.90;;;;;;4942389;28;20487;-73
2024/03/07 07:40:09;;;;;;;19.87;11.27;;;6.00;99.90;;;;;;4958512;28;20483;-74
2024/03/07 07:42:38;;;;;;;18.70;11.87;;;5.90;99.90;;;;;;4962287;28;20477;-73
2024/03/07 07:45:11;;;;;;;19.10;11.00;;;5.90;99.90;;;;;;4960270;28;20545;-74
2024/03/07 07:47:41;;;;;;;21.67;11.67;;;6.00;99.90;;;;;;4960258;28;20624;-73
2024/03/07 07:50:17;;;;;;;20.73;12.20;;;5.90;99.90;;;;;;4959629;28;20498;-73
2024/03/07 07:53:07;;;;;;;20.90;12.00;;;5.90;99.90;;;;;;4958139;28;20485;-73
2024/03/07 07:55:32;;;;;;;19.43;11.80;;;5.90;99.90;;;;;;4953995;28;20980;-72
2024/03/07 07:57:59;;;;;;;20.87;13.40;;;5.90;99.90;;;;;;4962091;28;20475;-73
2024/03/07 08:00:28;;;;;;;22.10;12.37;;;5.90;99.90;;;;;;4960629;28;20231;-72
2024/03/07 08:03:06;;;;;;;21.93;11.03;;;5.80;99.90;;;;;;4972559;28;20467;-72
2024/03/07 08:05:33;;;;;;;23.67;12.60;;;5.90;99.90;;;;;;4961280;28;20466;-73
2024/03/07 08:08:02;;;;;;;22.73;12.97;;;5.90;99.90;;;;;;4976262;28;20964;-72
2024/03/07 08:10:28;;;;;;;20.90;11.90;;;5.80;99.90;;;;;;4942482;28;21000;-70
2024/03/07 08:13:08;;;;;;;23.83;12.63;;;5.90;99.90;;;;;;4956245;28;20462;-73
2024/03/07 08:15:34;;;;;;;21.87;11.10;;;5.90;99.90;;;;;;4949569;28;20457;-73
2024/03/07 08:18:00;;;;;;;25.37;12.60;;;5.90;99.90;;;;;;4961757;28;20513;-73
2024/03/07 08:20:26;;;;;;;19.20;11.30;;;5.90;99.90;;;;;;4954402;28;20700;-71
2024/03/07 08:22:54;;;;;;;15.57;10.13;;;5.90;99.90;;;;;;4961556;28;20476;-73
2024/03/07 08:25:25;;;;;;;20.90;11.83;;;5.90;99.90;;;;;;4956074;28;20446;-71
2024/03/07 08:27:53;;;;;;;20.90;11.77;;;5.90;99.90;;;;;;4961106;28;20466;-71
2024/03/07 08:30:19;;;;;;;22.23;11.83;;;5.90;99.90;;;;;;4956755;28;21014;-72
2024/03/07 08:32:46;;;;;;;21.73;11.70;;;5.80;99.90;;;;;;4961591;28;20473;-73
2024/03/07 08:35:12;;;;;;;20.13;10.30;;;5.90;99.90;;;;;;4960249;28;20517;-73
2024/03/07 08:37:44;;;;;;;23.93;11.70;;;5.90;99.90;;;;;;4972588;28;20462;-71
2024/03/07 08:40:10;;;;;;;23.07;12.27;;;5.90;99.90;;;;;;4956532;28;20473;-71
2024/03/07 08:42:37;;;;;;;18.17;10.50;;;5.90;99.90;;;;;;4961405;28;20463;-72
2024/03/07 08:45:04;;;;;;;16.57;10.00;;;5.90;99.90;;;;;;4966558;28;20501;-72
2024/03/07 08:47:35;;;;;;;16.63;9.07;;;6.00;99.90;;;;;;4968299;28;20497;-73
2024/03/07 08:50:02;;;;;;;14.60;9.37;;;6.00;99.90;;;;;;4966204;28;20454;-73
2024/03/07 08:52:28;;;;;;;18.43;9.93;;;6.00;99.90;;;;;;4949157;28;20465;-73
2024/03/07 08:54:54;;;;;;;23.93;11.47;;;6.00;99.90;;;;;;4963527;28;20471;-73
2024/03/07 08:57:21;;;;;;;17.40;9.80;;;5.90;99.90;;;;;;4967035;28;20233;-71
2024/03/07 08:59:47;;;;;;;19.00;9.77;;;6.00;99.90;;;;;;4964047;28;20498;-72
2024/03/07 09:02:13;;;;;;;16.77;10.00;;;6.10;99.90;;;;;;4947585;28;20494;-72
2024/03/07 09:04:39;;;;;;;19.73;9.70;;;6.20;99.90;;;;;;4964031;28;20522;-70
2024/03/07 09:07:07;;;;;;;17.80;9.77;;;6.20;99.90;;;;;;4964644;28;20267;-71
2024/03/07 09:09:34;;;;;;;16.23;9.20;;;6.20;99.90;;;;;;4966262;28;20234;-71
2024/03/07 09:12:01;;;;;;;18.13;10.47;;;6.30;99.90;;;;;;4977923;28;20462;-71
2024/03/07 09:14:28;;;;;;;19.67;11.10;;;6.40;99.90;;;;;;4948277;28;20462;-72
2024/03/07 09:16:53;;;;;;;19.67;10.80;;;6.40;99.90;;;;;;4966649;28;20477;-71
2024/03/07 09:19:20;;;;;;;21.70;11.60;;;6.50;99.90;;;;;;4962783;28;20828;-71
2024/03/07 09:21:50;;;;;;;21.43;11.07;;;6.50;99.90;;;;;;4965256;28;20253;-71
2024/03/07 09:24:16;;;;;;;19.70;11.03;;;6.50;99.90;;;;;;4977035;28;20458;-71
2024/03/07 09:26:42;;;;;;;18.00;10.70;;;6.60;99.90;;;;;;4964868;28;20473;-72
2024/03/07 09:29:07;;;;;;;16.43;9.83;;;6.60;99.90;;;;;;4966277;28;20227;-71
2024/03/07 09:31:33;;;;;;;15.73;8.80;;;6.70;99.90;;;;;;4951272;28;20281;-70
2024/03/07 09:33:59;;;;;;;18.23;10.80;;;6.80;99.90;;;;;;4949443;28;20725;-71
2024/03/07 09:36:25;;;;;;;16.40;10.00;;;6.70;99.90;;;;;;4967641;28;20218;-71
2024/03/07 09:38:51;;;;;;;14.03;8.83;;;6.80;99.90;;;;;;4968914;28;20219;-71
2024/03/07 09:41:17;;;;;;;21.50;10.63;;;6.80;99.90;;;;;;4965956;28;20473;-71
2024/03/07 09:43:55;;;;;;;17.63;9.30;;;7.00;99.90;;;;;;4967426;28;20530;-72
2024/03/07 09:46:23;;;;;;;18.43;10.33;;;6.90;99.90;;;;;;4969238;28;20230;-70
2024/03/07 09:48:54;;;;;;;17.00;9.40;;;6.90;99.90;;;;;;4951750;28;20454;-71
2024/03/07 09:51:20;;;;;;;16.60;10.40;;;7.00;99.90;;;;;;4966881;28;20485;-71
2024/03/07 09:53:50;;;;;;;15.37;9.50;;;7.10;99.90;;;;;;4964239;28;20461;-72
2024/03/07 09:56:22;;;;;;;17.13;9.03;;;7.10;99.90;;;;;;4971321;28;20507;-70
2024/03/07 09:58:53;;;;;;;14.43;8.70;;;7.10;99.90;;;;;;4954361;28;20461;-72
2024/03/07 10:01:20;;;;;;;19.00;9.10;;;7.20;99.90;;;;;;4968691;28;20490;-73
2024/03/07 10:03:48;;;;;;;21.70;10.27;;;7.30;99.90;;;;;;4965882;28;20484;-72
2024/03/07 10:06:14;;;;;;;17.70;9.73;;;7.30;99.90;;;;;;4970062;28;20467;-73
2024/03/07 10:08:43;;;;;;;18.30;11.47;;;7.30;99.90;;;;;;4980150;28;20516;-71
2024/03/07 10:11:09;;;;;;;19.23;9.63;;;7.40;99.90;;;;;;4968571;28;20217;-71
2024/03/07 10:13:35;;;;;;;21.37;10.93;;;7.50;99.90;;;;;;4969928;28;20461;-73
2024/03/07 10:16:04;;;;;;;18.43;9.73;;;7.70;99.90;;;;;;4984056;28;20234;-72
2024/03/07 10:18:31;;;;;;;18.40;10.20;;;7.50;99.90;;;;;;4967488;28;20640;-72
2024/03/07 10:20:57;;;;;;;15.07;8.90;;;7.50;99.90;;;;;;4967054;28;20464;-71
2024/03/07 10:23:23;;;;;;;20.07;10.13;;;7.50;99.90;;;;;;4966669;28;20462;-71
2024/03/07 10:25:54;;;;;;;18.07;9.33;;;7.50;99.90;;;;;;4970661;28;20225;-71
2024/03/07 10:28:23;;;;;;;15.27;8.83;;;7.30;99.90;;;;;;4967520;28;20539;-71
2024/03/07 10:30:50;;;;;;;19.03;9.70;;;7.40;99.90;;;;;;4980914;28;20541;-74
2024/03/07 10:33:17;;;;;;;15.90;9.80;;;7.50;99.90;;;;;;4964837;28;20450;-72
2024/03/07 10:35:42;;;;;;;17.27;10.40;;;7.60;99.90;;;;;;4968803;28;20499;-72
2024/03/07 10:38:11;;;;;;;17.00;9.70;;;7.70;99.90;;;;;;4951924;28;20461;-72
2024/03/07 10:40:40;;;;;;;16.73;10.00;;;7.60;99.90;;;;;;4968464;28;20229;-72
2024/03/07 10:43:10;;;;;;;17.13;9.80;;;7.60;99.90;;;;;;4960408;28;20480;-71
2024/03/07 10:45:45;;;;;;;16.70;9.43;;;7.60;99.90;;;;;;4951648;28;20453;-73
2024/03/07 10:48:12;;;;;;;18.80;10.27;;;7.90;99.90;;;;;;4983252;28;20973;-70
2024/03/07 10:50:59;;;;;;;20.23;10.10;;;7.90;99.90;;;;;;4966274;28;20473;-72
2024/03/07 10:53:45;;;;;;;17.40;9.40;;;7.80;99.90;;;;;;4958451;28;20450;-72
2024/03/07 10:56:16;;;;;;;21.93;10.47;;;7.70;99.90;;;;;;4962808;28;20458;-71
2024/03/07 10:58:59;;;;;;;13.33;9.30;;;7.50;99.90;;;;;;4961570;28;20477;-74
2024/03/07 11:01:26;;;;;;;14.43;9.47;;;7.70;99.90;;;;;;4961643;28;20524;-73
2024/03/07 11:03:53;;;;;;;15.70;9.90;;;7.90;99.90;;;;;;4965343;28;20455;-72
2024/03/07 11:06:20;;;;;;;16.13;9.30;;;8.00;99.90;;;;;;4967790;28;20485;-71
2024/03/07 11:08:46;;;;;;;19.17;10.10;;;7.90;99.90;;;;;;4963361;28;20459;-73
2024/03/07 11:11:13;;;;;;;17.10;9.43;;;7.90;99.90;;;;;;4966561;28;20454;-72
2024/03/07 11:13:40;;;;;;;19.87;10.23;;;8.00;99.90;;;;;;4965375;28;20458;-73
2024/03/07 11:16:06;;;;;;;15.63;9.20;;;7.90;99.90;;;;;;4968578;28;20455;-72
2024/03/07 11:18:32;;;;;;;19.80;10.67;;;7.90;99.90;;;;;;4964863;28;20521;-73
2024/03/07 11:26:09;;;;;;;17.03;9.47;;;8.10;99.90;;;;;;4976477;28;21065;-72
2024/03/07 11:28:42;;;;;;;18.60;10.80;;;8.30;99.90;;;;;;4962064;28;20909;-72
2024/03/07 11:31:09;;;;;;;17.63;10.63;;;8.40;99.90;;;;;;4985403;28;20508;-73
2024/03/07 11:33:39;;;;;;;25.23;12.23;;;8.20;99.90;;;;;;4985437;28;20493;-73
2024/03/07 11:36:11;;;;;;;15.80;10.10;;;8.10;99.90;;;;;;4972950;28;20507;-73
2024/03/07 11:38:50;;;;;;;18.27;10.20;;;8.10;99.90;;;;;;4988325;28;20458;-72
2024/03/07 11:41:19;;;;;;;23.50;11.27;;;8.20;99.90;;;;;;4989997;28;20818;-72
2024/03/07 11:43:45;;;;;;;17.93;10.47;;;8.20;99.90;;;;;;4990150;28;20981;-73
2024/03/07 11:46:16;;;;;;;20.10;10.10;;;8.20;99.90;;;;;;4989309;28;20531;-73
2024/03/07 11:48:42;;;;;;;16.37;10.30;;;8.20;99.90;;;;;;4985088;28;20222;-73
2024/03/07 11:51:13;;;;;;;23.17;12.47;;;8.20;99.90;;;;;;4985181;28;20556;-73
2024/03/07 11:53:38;;;;;;;19.27;9.50;;;8.20;99.90;;;;;;4984631;28;20511;-72
2024/03/07 11:56:09;;;;;;;15.10;10.03;;;8.20;99.90;;;;;;4982117;28;20523;-74
2024/03/07 11:58:41;;;;;;;23.43;10.80;;;8.30;99.90;;;;;;4984291;28;21049;-73
2024/03/07 12:01:10;;;;;;;16.03;9.57;;;8.40;99.90;;;;;;4984559;28;21023;-73
2024/03/07 12:03:37;;;;;;;19.23;10.13;;;8.50;99.90;;;;;;4967447;28;20458;-73
2024/03/07 12:06:03;;;;;;;17.73;11.03;;;8.60;99.90;;;;;;4972036;28;20484;-72
2024/03/07 12:08:29;;;;;;;16.40;10.20;;;8.50;99.90;;;;;;4984848;28;20462;-74
2024/03/07 12:10:56;;;;;;;16.80;9.27;;;8.50;99.90;;;;;;4980556;28;20461;-73
2024/03/07 12:13:22;;;;;;;22.70;9.87;;;8.40;99.90;;;;;;4982943;28;20519;-73
2024/03/07 12:15:51;;;;;;;16.10;10.47;;;8.30;99.90;;;;;;4985383;28;20457;-72
2024/03/07 12:18:18;;;;;;;17.30;10.17;;;8.50;99.90;;;;;;4985988;28;20504;-73
2024/03/07 12:20:53;;;;;;;17.10;9.77;;;8.60;99.90;;;;;;4985317;28;20515;-74
2024/03/07 12:23:22;;;;;;;13.13;8.70;;;8.60;99.90;;;;;;4983872;28;20476;-73
2024/03/07 12:25:47;;;;;;;20.20;10.10;;;8.60;99.90;;;;;;4966164;28;20465;-74
2024/03/07 12:28:20;;;;;;;20.33;11.03;;;8.70;99.90;;;;;;4987407;28;20973;-74
2024/03/07 12:30:45;;;;;;;13.00;8.80;;;8.90;99.90;;;;;;4965396;28;20221;-73
2024/03/07 12:33:13;;;;;;;22.03;9.90;;;9.00;99.90;;;;;;4979815;28;20465;-74
2024/03/07 12:35:43;;;;;;;15.23;9.87;;;8.80;99.90;;;;;;4986169;28;20221;-73
2024/03/07 12:38:15;;;;;;;17.50;10.10;;;8.70;99.90;;;;;;4997515;28;20457;-74
2024/03/07 12:40:42;;;;;;;21.93;10.93;;;8.60;99.90;;;;;;4981434;28;20469;-73
2024/03/07 12:43:16;;;;;;;21.23;10.60;;;8.70;99.90;;;;;;4987424;28;20461;-74
2024/03/07 12:45:51;;;;;;;18.17;11.70;;;8.60;99.90;;;;;;4989694;28;20550;-73